Terminal Aerodrome Forecast
Issued by NWS

Home | Current Version | Previous Version | Text Only | Print | Product List | Glossary On
Versions: 1 2 3 4 5 6 7 8 9 10 11 12 13 14 15
000
FTUS43 KILX 310500
TAFDEC
TAF
KDEC 310520Z 3106/0106 VRB05KT P6SM VCSH OVC045
     FM311000 33014KT P6SM VCSH SCT015 OVC035
     FM311400 34020G30KT P6SM BKN025
     FM312000 34020G30KT P6SM SCT035
     FM010100 34014KT P6SM SKC=

USA.gov is the U.S. government's official web portal to all federal, state and local government web resources and services.